createdAt,value
2019-03-02T00:08:26.670Z,5.20
2019-03-02T00:14:39.699Z,5.20
2019-03-02T00:17:21.057Z,5.20
2019-03-02T00:20:19.206Z,5.20
2019-03-02T00:23:15.748Z,5.20
2019-03-02T00:26:20.983Z,5.20
2019-03-02T00:28:32.726Z,5.20
2019-03-02T00:31:11.577Z,5.20
2019-03-02T00:33:56.635Z,5.20
2019-03-02T00:36:35.648Z,5.10
2019-03-02T00:39:21.703Z,5.20
2019-03-02T00:45:35.185Z,5.20
2019-03-02T00:48:15.561Z,5.20
2019-03-02T00:50:50.689Z,5.20
2019-03-02T00:53:27.019Z,5.20
2019-03-02T00:56:04.073Z,5.10
2019-03-02T00:58:38.341Z,5.20
2019-03-02T01:01:14.924Z,5.10
2019-03-02T01:03:57.842Z,5.10
2019-03-02T01:06:39.252Z,5.10
2019-03-02T01:13:01.370Z,5.10
2019-03-02T01:15:31.497Z,5.10
2019-03-02T01:18:06.678Z,5.20
2019-03-02T01:20:36.911Z,5.10
2019-03-02T01:23:10.198Z,5.10
2019-03-02T01:29:20.881Z,5.10
2019-03-02T01:31:50.849Z,5.10
2019-03-02T01:34:20.520Z,5.10
2019-03-02T01:36:59.778Z,5.10
2019-03-02T01:39:34.301Z,5.10
2019-03-02T01:42:07.885Z,5.10
2019-03-02T01:44:37.784Z,5.10
2019-03-02T01:47:15.742Z,5.10
2019-03-02T01:49:48.740Z,5.10
2019-03-02T01:56:02.766Z,5.10
2019-03-02T01:58:32.815Z,5.10
2019-03-02T02:01:10.080Z,5.10
2019-03-02T02:03:40.185Z,5.10
2019-03-02T02:09:54.360Z,5.10
2019-03-02T02:12:28.812Z,5.10
2019-03-02T02:15:04.326Z,5.10
2019-03-02T02:17:49.606Z,5.10
2019-03-02T02:20:16.213Z,5.10
2019-03-02T02:22:49.675Z,5.10
2019-03-02T02:25:21.029Z,5.10
2019-03-02T02:27:59.207Z,5.10
2019-03-02T02:30:29.124Z,5.10
2019-03-02T02:33:07.051Z,5.10
2019-03-02T02:35:40.179Z,5.10
2019-03-02T02:38:16.131Z,5.10
2019-03-02T02:40:54.370Z,5.10
2019-03-02T02:43:26.680Z,5.10
2019-03-02T02:45:59.667Z,5.10
2019-03-02T02:48:35.680Z,5.10
2019-03-02T02:51:15.483Z,5.10
2019-03-02T02:53:47.285Z,5.10
2019-03-02T02:56:22.543Z,5.10
2019-03-02T02:59:01.715Z,5.10
2019-03-02T03:01:35.352Z,5.10
2019-03-02T03:04:12.327Z,5.10
2019-03-02T03:06:45.405Z,5.10
2019-03-02T03:09:34.506Z,5.10
2019-03-02T03:12:17.802Z,5.10
2019-03-02T03:14:54.133Z,5.10
2019-03-02T03:17:28.073Z,5.10
2019-03-02T03:20:05.653Z,5.10
2019-03-02T03:22:34.670Z,5.10
2019-03-02T03:25:22.325Z,5.10
2019-03-02T03:27:53.822Z,5.10
2019-03-02T03:30:35.595Z,5.10
2019-03-02T03:36:24.384Z,5.10
2019-03-02T03:38:55.747Z,5.10
2019-03-02T03:41:30.335Z,5.10
2019-03-02T03:44:09.462Z,5.10
2019-03-02T03:50:23.598Z,5.10
2019-03-02T03:53:01.592Z,5.10
2019-03-02T03:55:34.737Z,5.20
2019-03-02T03:58:12.942Z,5.10
2019-03-02T04:00:45.149Z,5.20
2019-03-02T04:03:23.509Z,5.20
2019-03-02T04:05:57.581Z,5.10
2019-03-02T04:08:32.528Z,5.20
2019-03-02T04:11:06.200Z,5.20
2019-03-02T04:17:21.167Z,5.20
2019-03-02T04:19:55.620Z,5.20
2019-03-02T04:22:27.708Z,5.20
2019-03-02T04:24:58.456Z,5.20
2019-03-02T04:31:19.348Z,5.20
2019-03-02T04:33:50.215Z,5.20
2019-03-02T04:36:26.073Z,5.20
2019-03-02T04:38:57.036Z,5.20
2019-03-02T04:41:35.607Z,5.20
2019-03-02T04:44:19.939Z,5.20
2019-03-02T04:50:34.629Z,5.20
2019-03-02T04:53:12.704Z,5.20
2019-03-02T04:55:45.642Z,5.20
2019-03-02T04:58:31.043Z,5.20
2019-03-02T05:01:16.901Z,5.20
2019-03-02T05:08:16.310Z,5.30
2019-03-02T05:11:23.651Z,5.30
2019-03-02T05:16:56.406Z,5.30
2019-03-02T05:19:30.744Z,5.30
2019-03-02T05:26:13.288Z,5.30
2019-03-02T05:28:50.457Z,5.30
2019-03-02T05:31:21.163Z,5.30
2019-03-02T05:33:55.349Z,5.30
2019-03-02T05:36:29.669Z,5.30
2019-03-02T05:39:17.339Z,5.30
2019-03-02T05:41:56.916Z,5.30
2019-03-02T05:48:22.380Z,5.30
2019-03-02T06:02:52.338Z,5.30
2019-03-02T07:59:33.593Z,5.50
2019-03-02T08:13:15.080Z,5.60
2019-03-02T08:15:46.458Z,5.70
2019-03-02T08:19:09.678Z,5.70
2019-03-02T08:32:17.618Z,5.80
2019-03-02T08:38:01.657Z,5.80
2019-03-02T08:40:37.013Z,5.80
2019-03-02T08:43:26.584Z,5.90
2019-03-02T08:46:03.550Z,5.90
2019-03-02T08:48:31.390Z,5.90
2019-03-02T08:51:00.646Z,5.90
2019-03-02T08:53:30.187Z,5.90
2019-03-02T08:56:00.478Z,5.90
2019-03-02T08:58:29.721Z,5.90
2019-03-02T09:01:01.992Z,6.00
2019-03-02T09:03:44.897Z,6.00
2019-03-02T09:06:51.094Z,6.00
2019-03-02T09:08:59.755Z,6.00
2019-03-02T09:11:28.895Z,6.00
2019-03-02T09:14:00.019Z,6.10
2019-03-02T09:16:38.589Z,6.10
2019-03-02T09:19:11.254Z,6.10
2019-03-02T09:22:07.878Z,6.10
2019-03-02T09:24:37.152Z,6.10
2019-03-02T09:27:06.612Z,6.20
2019-03-02T09:29:36.261Z,6.20
2019-03-02T09:32:05.583Z,6.20
2019-03-02T09:34:36.988Z,6.20
2019-03-02T09:37:07.009Z,6.20
2019-03-02T09:39:37.511Z,6.30
2019-03-02T09:42:11.998Z,6.40
2019-03-02T09:47:15.769Z,6.40
2019-03-02T09:49:45.022Z,6.50
2019-03-02T09:52:14.579Z,6.50
2019-03-02T09:54:44.262Z,6.50
2019-03-02T09:57:13.843Z,6.60
2019-03-02T09:59:45.381Z,6.60
2019-03-02T10:02:24.721Z,6.60
2019-03-02T10:04:54.684Z,6.60
2019-03-02T10:07:28.446Z,6.70
2019-03-02T10:09:59.683Z,6.70
2019-03-02T10:12:29.138Z,6.70
2019-03-02T10:15:00.856Z,6.70
2019-03-02T10:17:30.579Z,6.70
2019-03-02T10:20:05.210Z,6.80
2019-03-02T10:22:32.396Z,6.80
2019-03-02T10:25:01.871Z,6.80
2019-03-02T10:27:31.399Z,6.80
2019-03-02T10:30:40.629Z,6.80
2019-03-02T10:33:10.291Z,6.90
2019-03-02T10:35:40.288Z,6.90
2019-03-02T10:38:09.369Z,7.00
2019-03-02T10:40:41.706Z,7.00
2019-03-02T10:46:49.942Z,7.20
2019-03-02T10:49:27.006Z,7.20
2019-03-02T10:51:56.331Z,7.30
2019-03-02T10:54:25.807Z,7.30
2019-03-02T10:56:56.691Z,7.30
2019-03-02T10:59:33.878Z,7.30
2019-03-02T11:02:03.349Z,7.30
2019-03-02T11:04:43.966Z,7.30
2019-03-02T11:07:38.925Z,7.40
2019-03-02T11:10:23.596Z,7.40
2019-03-02T11:13:20.659Z,7.50
2019-03-02T11:16:07.805Z,7.50
2019-03-02T11:18:55.675Z,7.60
2019-03-02T11:21:34.751Z,7.60
2019-03-02T11:28:03.891Z,7.70
2019-03-02T11:30:49.949Z,7.80
2019-03-02T11:33:41.771Z,7.80
2019-03-02T11:36:28.847Z,7.80
2019-03-02T11:39:19.612Z,7.90
2019-03-02T11:42:13.953Z,8.00
2019-03-02T11:45:05.852Z,8.10
2019-03-02T11:47:58.065Z,8.20
2019-03-02T11:50:58.974Z,8.30
2019-03-02T11:53:48.788Z,8.50
2019-03-02T11:56:34.921Z,8.60
2019-03-02T11:59:29.058Z,8.80
2019-03-02T12:02:29.703Z,8.90
2019-03-02T12:05:19.053Z,9.10
2019-03-02T12:08:07.171Z,9.20
2019-03-02T12:10:56.350Z,9.30
2019-03-02T12:13:47.988Z,9.40
2019-03-02T12:16:40.436Z,9.50
2019-03-02T12:19:34.424Z,9.50
2019-03-02T12:22:21.652Z,9.60
2019-03-02T12:25:07.654Z,9.60
2019-03-02T12:28:10.888Z,9.70
2019-03-02T12:30:58.848Z,9.70
2019-03-02T12:33:46.034Z,9.80
2019-03-02T12:36:32.782Z,9.90
2019-03-02T12:39:30.292Z,9.90
2019-03-02T12:42:10.739Z,10.00
2019-03-02T12:44:54.149Z,10.00
2019-03-02T12:47:42.051Z,10.10
2019-03-02T12:51:11.645Z,10.20
2019-03-02T12:54:11.734Z,10.30
2019-03-02T12:57:00.606Z,10.40
2019-03-02T12:59:49.240Z,10.50
2019-03-02T13:09:27.531Z,10.80
2019-03-02T13:12:16.118Z,10.90
2019-03-02T13:18:52.345Z,10.90
2019-03-02T13:21:26.661Z,10.90
2019-03-02T13:27:21.551Z,10.90
2019-03-02T13:29:59.979Z,10.90
2019-03-02T13:33:02.895Z,10.90
2019-03-02T13:35:59.781Z,10.90
2019-03-02T13:38:49.768Z,10.90
2019-03-02T13:41:32.262Z,10.90
2019-03-02T13:44:16.317Z,10.80
2019-03-02T13:46:54.582Z,10.80
2019-03-02T13:49:51.016Z,10.80
2019-03-02T13:52:35.817Z,10.70
2019-03-02T13:55:28.156Z,10.70
2019-03-02T14:02:22.191Z,10.60
2019-03-02T14:09:21.953Z,10.50
2019-03-02T14:16:00.907Z,10.50
2019-03-02T14:26:26.392Z,10.40
2019-03-02T14:29:27.064Z,10.40
2019-03-02T14:32:10.191Z,10.40
2019-03-02T16:55:14.700Z,8.90
2019-03-02T16:58:13.919Z,8.90
2019-03-02T17:01:04.812Z,8.90
2019-03-02T17:04:26.815Z,8.90
2019-03-02T17:10:47.579Z,8.90
2019-03-02T17:17:45.275Z,8.90
2019-03-02T17:20:44.846Z,8.80
2019-03-02T17:26:21.426Z,8.80
2019-03-02T17:29:27.495Z,8.80
2019-03-02T17:32:36.023Z,8.80
2019-03-02T17:35:39.747Z,8.80
2019-03-02T17:44:55.333Z,8.70
2019-03-02T17:48:00.024Z,8.70
2019-03-02T17:50:53.019Z,8.70
2019-03-02T17:53:30.398Z,8.70
2019-03-02T17:56:18.671Z,8.60
2019-03-02T17:58:54.299Z,8.60
2019-03-02T18:05:23.317Z,8.60
2019-03-02T18:11:42.136Z,8.60
2019-03-02T18:14:20.134Z,8.50
2019-03-02T18:17:00.657Z,8.50
2019-03-02T18:19:29.985Z,8.50
2019-03-02T18:21:59.722Z,8.60
2019-03-02T18:24:31.867Z,8.60
2019-03-02T18:27:53.409Z,8.50
2019-03-02T18:30:23.143Z,8.50
2019-03-02T18:32:54.930Z,8.50
2019-03-02T18:35:43.650Z,8.50
2019-03-02T18:38:13.598Z,8.50
2019-03-02T18:40:46.169Z,8.50
2019-03-02T18:46:55.703Z,8.50
2019-03-02T18:50:14.954Z,8.60
2019-03-02T18:52:49.369Z,8.60
2019-03-02T18:55:18.684Z,8.60
2019-03-02T18:57:50.666Z,8.50
2019-03-02T19:00:23.053Z,8.50
2019-03-02T19:06:32.607Z,8.50
2019-03-02T19:09:02.273Z,8.50
2019-03-02T19:11:31.725Z,8.50
2019-03-02T19:14:01.239Z,8.50
2019-03-02T19:20:10.769Z,8.50
2019-03-02T19:26:20.130Z,8.50
2019-03-02T19:28:49.580Z,8.50
2019-03-02T19:31:21.203Z,8.50
2019-03-02T19:33:50.408Z,8.50
2019-03-02T19:36:19.933Z,8.50
2019-03-02T19:38:49.427Z,8.50
2019-03-02T19:41:19.247Z,8.50
2019-03-02T19:43:48.819Z,8.50
2019-03-02T19:46:18.482Z,8.50
2019-03-02T19:48:48.251Z,8.50
2019-03-02T19:51:17.761Z,8.50
2019-03-02T19:57:27.716Z,8.50
2019-03-02T19:59:57.726Z,8.50
2019-03-02T20:02:27.174Z,8.40
2019-03-02T20:04:56.632Z,8.40
2019-03-02T20:07:26.049Z,8.50
2019-03-02T20:09:56.051Z,8.50
2019-03-02T20:12:25.762Z,8.50
2019-03-02T20:14:55.113Z,8.50
2019-03-02T20:17:24.793Z,8.50
2019-03-02T20:19:54.084Z,8.50
2019-03-02T20:22:23.502Z,8.50
2019-03-02T20:28:33.020Z,8.50
2019-03-02T20:31:02.368Z,8.60
2019-03-02T20:37:11.642Z,8.50
2019-03-02T20:39:41.054Z,8.60
2019-03-02T20:42:10.871Z,8.60
2019-03-02T20:44:40.046Z,8.60
2019-03-02T20:47:09.486Z,8.60
2019-03-02T20:49:38.867Z,8.60
2019-03-02T20:52:08.296Z,8.60
2019-03-02T20:54:37.735Z,8.60
2019-03-02T20:57:07.582Z,8.60
2019-03-02T20:59:37.038Z,8.60
2019-03-02T21:02:06.367Z,8.60
2019-03-02T21:04:35.696Z,8.60
2019-03-02T21:07:05.241Z,8.60
2019-03-02T21:09:34.614Z,8.60
2019-03-02T21:12:04.441Z,8.60
2019-03-02T21:14:33.869Z,8.60
2019-03-02T21:20:43.581Z,8.60
2019-03-02T21:23:13.262Z,8.60
2019-03-02T21:25:42.651Z,8.60
2019-03-02T21:28:12.970Z,8.60
2019-03-02T21:30:42.853Z,8.60
2019-03-02T21:33:12.496Z,8.60
2019-03-02T21:35:41.737Z,8.60
2019-03-02T21:38:11.123Z,8.60
2019-03-02T21:40:40.523Z,8.70
2019-03-02T21:43:09.930Z,8.70
2019-03-02T21:45:39.331Z,8.60
2019-03-02T21:48:08.729Z,8.60
2019-03-02T21:54:18.089Z,8.60
2019-03-02T21:56:48.624Z,8.70
2019-03-02T21:59:18.059Z,8.70
2019-03-02T22:01:47.750Z,8.70
2019-03-02T22:04:16.997Z,8.70
2019-03-02T22:10:29.479Z,8.70
2019-03-02T22:16:39.138Z,8.70
2019-03-02T22:19:08.788Z,8.60
2019-03-02T22:25:18.992Z,8.70
2019-03-02T22:31:28.264Z,8.60
2019-03-02T22:37:37.542Z,8.60
2019-03-02T22:40:08.082Z,8.50
2019-03-02T22:42:37.564Z,8.50
2019-03-02T22:45:07.184Z,8.50
2019-03-02T22:47:36.856Z,8.50
2019-03-02T22:50:08.247Z,8.50
2019-03-02T22:56:17.629Z,8.40
2019-03-02T22:58:46.068Z,8.40
2019-03-02T23:04:56.145Z,8.40
2019-03-02T23:07:25.546Z,8.40
2019-03-02T23:09:55.049Z,8.40
2019-03-02T23:12:24.482Z,8.40
2019-03-02T23:14:54.156Z,8.30
2019-03-02T23:17:23.561Z,8.30
2019-03-02T23:19:52.879Z,8.30
2019-03-02T23:22:22.217Z,8.30
2019-03-02T23:24:51.697Z,8.30
2019-03-02T23:27:21.025Z,8.30
2019-03-02T23:29:50.401Z,8.30
2019-03-02T23:32:20.118Z,8.30
2019-03-02T23:34:49.392Z,8.30
2019-03-02T23:37:18.697Z,8.20
2019-03-02T23:39:48.053Z,8.20
2019-03-02T23:42:18.066Z,8.20
2019-03-02T23:44:47.757Z,8.30
2019-03-02T23:47:17.244Z,8.20
2019-03-02T23:49:46.561Z,8.20
2019-03-02T23:52:15.853Z,8.20
2019-03-02T23:54:45.110Z,8.20
2019-03-02T23:57:14.378Z,8.20
2019-03-02T23:59:43.563Z,8.20
